sensor_id;sensor_type;location;lat;lon;timestamp;P1;durP1;ratioP1;P2;durP2;ratioP2
35795;SDS011;21916;52.428;13.302;2023-02-28T00:01:32;9.88;;;3.90;;
35795;SDS011;21916;52.428;13.302;2023-02-28T00:03:59;7.90;;;3.67;;
35795;SDS011;21916;52.428;13.302;2023-02-28T00:06:25;8.10;;;4.35;;
35795;SDS011;21916;52.428;13.302;2023-02-28T00:08:52;10.35;;;4.93;;
35795;SDS011;21916;52.428;13.302;2023-02-28T00:11:17;13.65;;;6.35;;
35795;SDS011;21916;52.428;13.302;2023-02-28T00:13:44;10.25;;;5.18;;
35795;SDS011;21916;52.428;13.302;2023-02-28T00:16:14;15.73;;;6.00;;
35795;SDS011;21916;52.428;13.302;2023-02-28T00:18:42;16.50;;;6.85;;
35795;SDS011;21916;52.428;13.302;2023-02-28T00:21:08;17.90;;;7.35;;
35795;SDS011;21916;52.428;13.302;2023-02-28T00:23:34;19.17;;;7.88;;
35795;SDS011;21916;52.428;13.302;2023-02-28T00:26:01;16.67;;;6.93;;
35795;SDS011;21916;52.428;13.302;2023-02-28T00:28:27;13.45;;;5.93;;
35795;SDS011;21916;52.428;13.302;2023-02-28T00:30:53;14.23;;;5.35;;
35795;SDS011;21916;52.428;13.302;2023-02-28T00:33:19;13.07;;;6.13;;
35795;SDS011;21916;52.428;13.302;2023-02-28T00:35:46;12.05;;;5.43;;
35795;SDS011;21916;52.428;13.302;2023-02-28T00:38:13;14.65;;;6.53;;
35795;SDS011;21916;52.428;13.302;2023-02-28T00:40:40;12.60;;;6.13;;
35795;SDS011;21916;52.428;13.302;2023-02-28T00:43:06;15.27;;;6.95;;
35795;SDS011;21916;52.428;13.302;2023-02-28T00:45:32;13.85;;;5.85;;
35795;SDS011;21916;52.428;13.302;2023-02-28T00:47:58;11.52;;;4.88;;
35795;SDS011;21916;52.428;13.302;2023-02-28T00:50:24;7.60;;;4.35;;
35795;SDS011;21916;52.428;13.302;2023-02-28T00:52:50;11.02;;;4.57;;
35795;SDS011;21916;52.428;13.302;2023-02-28T00:55:16;7.15;;;4.43;;
35795;SDS011;21916;52.428;13.302;2023-02-28T00:57:41;11.13;;;4.70;;
35795;SDS011;21916;52.428;13.302;2023-02-28T01:00:08;10.55;;;5.00;;
35795;SDS011;21916;52.428;13.302;2023-02-28T01:02:35;12.35;;;5.70;;
35795;SDS011;21916;52.428;13.302;2023-02-28T01:05:01;10.38;;;5.22;;
35795;SDS011;21916;52.428;13.302;2023-02-28T01:07:29;11.82;;;6.68;;
35795;SDS011;21916;52.428;13.302;2023-02-28T01:09:56;18.90;;;9.57;;
35795;SDS011;21916;52.428;13.302;2023-02-28T01:12:23;19.23;;;8.57;;
35795;SDS011;21916;52.428;13.302;2023-02-28T01:14:50;16.02;;;7.28;;
35795;SDS011;21916;52.428;13.302;2023-02-28T01:17:15;11.55;;;6.65;;
35795;SDS011;21916;52.428;13.302;2023-02-28T01:19:41;8.35;;;4.70;;
35795;SDS011;21916;52.428;13.302;2023-02-28T01:22:08;9.85;;;4.53;;
35795;SDS011;21916;52.428;13.302;2023-02-28T01:24:34;7.32;;;4.25;;
35795;SDS011;21916;52.428;13.302;2023-02-28T01:27:01;10.50;;;5.03;;
35795;SDS011;21916;52.428;13.302;2023-02-28T01:29:27;7.15;;;4.18;;
35795;SDS011;21916;52.428;13.302;2023-02-28T01:31:53;10.13;;;5.05;;
35795;SDS011;21916;52.428;13.302;2023-02-28T01:34:19;8.80;;;5.60;;
35795;SDS011;21916;52.428;13.302;2023-02-28T01:36:46;10.30;;;5.60;;
35795;SDS011;21916;52.428;13.302;2023-02-28T01:39:12;9.38;;;5.03;;
35795;SDS011;21916;52.428;13.302;2023-02-28T01:41:38;12.48;;;5.40;;
35795;SDS011;21916;52.428;13.302;2023-02-28T01:47:11;9.38;;;4.07;;
35795;SDS011;21916;52.428;13.302;2023-02-28T01:49:37;7.60;;;4.20;;
35795;SDS011;21916;52.428;13.302;2023-02-28T01:56:18;9.27;;;4.32;;
35795;SDS011;21916;52.428;13.302;2023-02-28T01:58:51;7.65;;;4.90;;
35795;SDS011;21916;52.428;13.302;2023-02-28T02:01:20;7.53;;;4.60;;
35795;SDS011;21916;52.428;13.302;2023-02-28T02:03:48;11.55;;;5.90;;
35795;SDS011;21916;52.428;13.302;2023-02-28T02:06:25;10.65;;;4.28;;
35795;SDS011;21916;52.428;13.302;2023-02-28T02:08:54;10.93;;;5.25;;
35795;SDS011;21916;52.428;13.302;2023-02-28T02:11:20;8.13;;;4.43;;
35795;SDS011;21916;52.428;13.302;2023-02-28T02:17:09;10.82;;;4.85;;
35795;SDS011;21916;52.428;13.302;2023-02-28T02:36:09;8.95;;;4.47;;
35795;SDS011;21916;52.428;13.302;2023-02-28T02:38:49;9.85;;;4.75;;
35795;SDS011;21916;52.428;13.302;2023-02-28T02:41:49;11.55;;;4.60;;
35795;SDS011;21916;52.428;13.302;2023-02-28T02:44:22;7.30;;;4.57;;
35795;SDS011;21916;52.428;13.302;2023-02-28T02:47:26;11.98;;;4.93;;
35795;SDS011;21916;52.428;13.302;2023-02-28T02:49:48;10.60;;;4.90;;
35795;SDS011;21916;52.428;13.302;2023-02-28T02:52:18;11.55;;;4.60;;
35795;SDS011;21916;52.428;13.302;2023-02-28T02:54:48;11.68;;;5.28;;
35795;SDS011;21916;52.428;13.302;2023-02-28T02:57:21;10.90;;;5.10;;
35795;SDS011;21916;52.428;13.302;2023-02-28T02:59:52;10.57;;;4.93;;
35795;SDS011;21916;52.428;13.302;2023-02-28T03:02:20;11.02;;;5.72;;
35795;SDS011;21916;52.428;13.302;2023-02-28T03:04:51;10.07;;;4.93;;
35795;SDS011;21916;52.428;13.302;2023-02-28T03:07:26;12.63;;;6.63;;
35795;SDS011;21916;52.428;13.302;2023-02-28T03:09:53;9.95;;;4.80;;
35795;SDS011;21916;52.428;13.302;2023-02-28T03:12:20;9.55;;;5.72;;
35795;SDS011;21916;52.428;13.302;2023-02-28T03:21:00;12.98;;;4.88;;
35795;SDS011;21916;52.428;13.302;2023-02-28T03:26:34;11.68;;;5.60;;
35795;SDS011;21916;52.428;13.302;2023-02-28T03:29:12;11.40;;;5.68;;
35795;SDS011;21916;52.428;13.302;2023-02-28T03:32:00;11.57;;;6.28;;
35795;SDS011;21916;52.428;13.302;2023-02-28T03:34:37;12.85;;;5.55;;
35795;SDS011;21916;52.428;13.302;2023-02-28T03:37:15;11.90;;;6.20;;
35795;SDS011;21916;52.428;13.302;2023-02-28T03:39:47;10.00;;;6.60;;
35795;SDS011;21916;52.428;13.302;2023-02-28T03:42:25;13.05;;;6.47;;
35795;SDS011;21916;52.428;13.302;2023-02-28T03:44:58;15.20;;;6.13;;
35795;SDS011;21916;52.428;13.302;2023-02-28T03:47:35;13.65;;;6.40;;
35795;SDS011;21916;52.428;13.302;2023-02-28T03:50:19;10.15;;;5.60;;
35795;SDS011;21916;52.428;13.302;2023-02-28T03:52:57;10.98;;;6.47;;
35795;SDS011;21916;52.428;13.302;2023-02-28T03:55:30;13.00;;;5.63;;
35795;SDS011;21916;52.428;13.302;2023-02-28T03:58:08;12.25;;;6.30;;
35795;SDS011;21916;52.428;13.302;2023-02-28T04:00:48;10.50;;;6.10;;
35795;SDS011;21916;52.428;13.302;2023-02-28T04:03:36;13.80;;;6.35;;
35795;SDS011;21916;52.428;13.302;2023-02-28T04:06:04;10.02;;;5.25;;
35795;SDS011;21916;52.428;13.302;2023-02-28T04:08:32;12.02;;;6.32;;
35795;SDS011;21916;52.428;13.302;2023-02-28T04:11:03;10.07;;;6.22;;
35795;SDS011;21916;52.428;13.302;2023-02-28T04:13:41;9.55;;;6.25;;
35795;SDS011;21916;52.428;13.302;2023-02-28T04:16:08;12.27;;;6.25;;
35795;SDS011;21916;52.428;13.302;2023-02-28T04:18:40;13.98;;;6.50;;
35795;SDS011;21916;52.428;13.302;2023-02-28T04:21:08;11.13;;;6.88;;
35795;SDS011;21916;52.428;13.302;2023-02-28T04:23:35;13.20;;;6.93;;
35795;SDS011;21916;52.428;13.302;2023-02-28T04:26:01;14.48;;;6.57;;
35795;SDS011;21916;52.428;13.302;2023-02-28T04:28:27;10.27;;;5.82;;
35795;SDS011;21916;52.428;13.302;2023-02-28T04:30:57;13.18;;;6.40;;
35795;SDS011;21916;52.428;13.302;2023-02-28T04:33:24;10.68;;;6.18;;
35795;SDS011;21916;52.428;13.302;2023-02-28T04:38:28;13.23;;;6.82;;
35795;SDS011;21916;52.428;13.302;2023-02-28T04:40:56;13.45;;;6.30;;
35795;SDS011;21916;52.428;13.302;2023-02-28T04:43:23;10.80;;;6.82;;
35795;SDS011;21916;52.428;13.302;2023-02-28T04:45:50;11.32;;;6.55;;
35795;SDS011;21916;52.428;13.302;2023-02-28T04:48:16;11.70;;;6.05;;
35795;SDS011;21916;52.428;13.302;2023-02-28T04:50:42;11.20;;;6.18;;
35795;SDS011;21916;52.428;13.302;2023-02-28T04:53:07;11.23;;;7.05;;
35795;SDS011;21916;52.428;13.302;2023-02-28T04:55:33;13.00;;;6.63;;
35795;SDS011;21916;52.428;13.302;2023-02-28T04:57:59;14.48;;;6.50;;
35795;SDS011;21916;52.428;13.302;2023-02-28T05:00:25;12.80;;;7.15;;
35795;SDS011;21916;52.428;13.302;2023-02-28T05:02:51;10.70;;;6.55;;
35795;SDS011;21916;52.428;13.302;2023-02-28T05:05:17;16.25;;;6.97;;
35795;SDS011;21916;52.428;13.302;2023-02-28T05:07:44;11.95;;;6.53;;
35795;SDS011;21916;52.428;13.302;2023-02-28T05:10:10;13.38;;;7.28;;
35795;SDS011;21916;52.428;13.302;2023-02-28T05:12:36;12.75;;;6.50;;
35795;SDS011;21916;52.428;13.302;2023-02-28T05:15:02;11.40;;;6.53;;
35795;SDS011;21916;52.428;13.302;2023-02-28T05:17:30;13.32;;;6.70;;
35795;SDS011;21916;52.428;13.302;2023-02-28T05:19:56;15.00;;;7.50;;
35795;SDS011;21916;52.428;13.302;2023-02-28T05:22:22;14.80;;;7.20;;
35795;SDS011;21916;52.428;13.302;2023-02-28T05:24:48;12.18;;;6.80;;
35795;SDS011;21916;52.428;13.302;2023-02-28T05:27:16;11.75;;;7.20;;
35795;SDS011;21916;52.428;13.302;2023-02-28T05:29:42;14.40;;;7.65;;
35795;SDS011;21916;52.428;13.302;2023-02-28T05:32:11;13.75;;;7.00;;
35795;SDS011;21916;52.428;13.302;2023-02-28T05:34:38;13.55;;;7.47;;
35795;SDS011;21916;52.428;13.302;2023-02-28T05:37:05;12.85;;;6.53;;
35795;SDS011;21916;52.428;13.302;2023-02-28T05:39:32;15.45;;;6.28;;
35795;SDS011;21916;52.428;13.302;2023-02-28T05:41:58;9.98;;;6.85;;
35795;SDS011;21916;52.428;13.302;2023-02-28T05:44:24;15.82;;;7.85;;
35795;SDS011;21916;52.428;13.302;2023-02-28T05:46:50;13.90;;;7.57;;
35795;SDS011;21916;52.428;13.302;2023-02-28T05:49:16;18.95;;;8.20;;
35795;SDS011;21916;52.428;13.302;2023-02-28T05:51:42;13.18;;;7.05;;
35795;SDS011;21916;52.428;13.302;2023-02-28T05:54:08;14.82;;;7.78;;
35795;SDS011;21916;52.428;13.302;2023-02-28T05:56:34;11.85;;;7.03;;
35795;SDS011;21916;52.428;13.302;2023-02-28T05:59:00;13.77;;;7.40;;
35795;SDS011;21916;52.428;13.302;2023-02-28T06:01:37;16.00;;;8.25;;
35795;SDS011;21916;52.428;13.302;2023-02-28T06:04:09;14.50;;;8.30;;
35795;SDS011;21916;52.428;13.302;2023-02-28T06:06:36;14.05;;;8.10;;
35795;SDS011;21916;52.428;13.302;2023-02-28T06:09:05;15.98;;;7.93;;
35795;SDS011;21916;52.428;13.302;2023-02-28T06:11:31;13.90;;;7.72;;
35795;SDS011;21916;52.428;13.302;2023-02-28T06:13:58;16.73;;;8.35;;
35795;SDS011;21916;52.428;13.302;2023-02-28T06:16:29;15.43;;;8.20;;
35795;SDS011;21916;52.428;13.302;2023-02-28T06:18:56;15.05;;;8.43;;
35795;SDS011;21916;52.428;13.302;2023-02-28T06:21:24;13.55;;;7.55;;
35795;SDS011;21916;52.428;13.302;2023-02-28T06:23:50;15.43;;;8.35;;
35795;SDS011;21916;52.428;13.302;2023-02-28T06:26:16;14.80;;;8.63;;
35795;SDS011;21916;52.428;13.302;2023-02-28T06:28:42;15.43;;;8.85;;
35795;SDS011;21916;52.428;13.302;2023-02-28T06:31:08;14.57;;;7.95;;
35795;SDS011;21916;52.428;13.302;2023-02-28T06:33:36;12.68;;;7.93;;
35795;SDS011;21916;52.428;13.302;2023-02-28T06:36:04;15.55;;;8.23;;
35795;SDS011;21916;52.428;13.302;2023-02-28T06:38:31;17.23;;;9.38;;
35795;SDS011;21916;52.428;13.302;2023-02-28T06:40:57;15.35;;;7.93;;
35795;SDS011;21916;52.428;13.302;2023-02-28T06:43:25;17.80;;;9.07;;
35795;SDS011;21916;52.428;13.302;2023-02-28T06:45:54;16.13;;;9.10;;
35795;SDS011;21916;52.428;13.302;2023-02-28T06:48:21;14.13;;;8.38;;
35795;SDS011;21916;52.428;13.302;2023-02-28T06:50:48;18.75;;;9.77;;
35795;SDS011;21916;52.428;13.302;2023-02-28T06:53:14;14.73;;;8.25;;
35795;SDS011;21916;52.428;13.302;2023-02-28T06:55:40;15.20;;;8.35;;
35795;SDS011;21916;52.428;13.302;2023-02-28T06:58:07;16.15;;;8.52;;
35795;SDS011;21916;52.428;13.302;2023-02-28T07:00:45;19.48;;;9.05;;
35795;SDS011;21916;52.428;13.302;2023-02-28T07:03:16;12.27;;;7.88;;
35795;SDS011;21916;52.428;13.302;2023-02-28T07:05:42;19.13;;;8.30;;
35795;SDS011;21916;52.428;13.302;2023-02-28T07:08:08;17.70;;;8.60;;
35795;SDS011;21916;52.428;13.302;2023-02-28T07:10:36;15.80;;;8.48;;
35795;SDS011;21916;52.428;13.302;2023-02-28T07:13:03;14.95;;;8.65;;
35795;SDS011;21916;52.428;13.302;2023-02-28T07:15:30;13.23;;;7.45;;
35795;SDS011;21916;52.428;13.302;2023-02-28T07:17:56;16.63;;;8.05;;
35795;SDS011;21916;52.428;13.302;2023-02-28T07:20:22;12.55;;;8.15;;
35795;SDS011;21916;52.428;13.302;2023-02-28T07:22:49;13.55;;;7.57;;
35795;SDS011;21916;52.428;13.302;2023-02-28T07:25:22;12.52;;;6.85;;
35795;SDS011;21916;52.428;13.302;2023-02-28T07:27:49;13.68;;;7.60;;
35795;SDS011;21916;52.428;13.302;2023-02-28T07:30:18;14.57;;;6.97;;
35795;SDS011;21916;52.428;13.302;2023-02-28T07:32:44;17.15;;;8.73;;
35795;SDS011;21916;52.428;13.302;2023-02-28T07:35:10;17.50;;;7.25;;
35795;SDS011;21916;52.428;13.302;2023-02-28T07:37:36;17.33;;;6.70;;
35795;SDS011;21916;52.428;13.302;2023-02-28T07:40:07;13.05;;;7.28;;
35795;SDS011;21916;52.428;13.302;2023-02-28T07:42:35;11.60;;;6.60;;
35795;SDS011;21916;52.428;13.302;2023-02-28T07:45:03;13.75;;;6.20;;
35795;SDS011;21916;52.428;13.302;2023-02-28T07:47:30;11.00;;;6.50;;
35795;SDS011;21916;52.428;13.302;2023-02-28T07:49:57;12.32;;;6.72;;
35795;SDS011;21916;52.428;13.302;2023-02-28T07:52:23;11.25;;;6.22;;
35795;SDS011;21916;52.428;13.302;2023-02-28T07:54:50;9.85;;;5.57;;
35795;SDS011;21916;52.428;13.302;2023-02-28T07:57:16;12.98;;;6.00;;
35795;SDS011;21916;52.428;13.302;2023-02-28T07:59:42;11.95;;;6.30;;
35795;SDS011;21916;52.428;13.302;2023-02-28T08:02:11;10.40;;;5.50;;
35795;SDS011;21916;52.428;13.302;2023-02-28T08:04:41;10.00;;;5.38;;
35795;SDS011;21916;52.428;13.302;2023-02-28T08:07:08;9.40;;;4.93;;
35795;SDS011;21916;52.428;13.302;2023-02-28T08:09:41;11.85;;;4.47;;
35795;SDS011;21916;52.428;13.302;2023-02-28T08:12:08;8.23;;;4.72;;
35795;SDS011;21916;52.428;13.302;2023-02-28T08:14:34;10.57;;;4.72;;
35795;SDS011;21916;52.428;13.302;2023-02-28T08:17:01;8.10;;;4.57;;
35795;SDS011;21916;52.428;13.302;2023-02-28T08:19:27;6.85;;;3.63;;
35795;SDS011;21916;52.428;13.302;2023-02-28T08:21:54;6.97;;;4.28;;
35795;SDS011;21916;52.428;13.302;2023-02-28T08:24:20;8.32;;;4.07;;
35795;SDS011;21916;52.428;13.302;2023-02-28T08:26:49;9.70;;;4.43;;
35795;SDS011;21916;52.428;13.302;2023-02-28T08:29:15;8.02;;;4.43;;
35795;SDS011;21916;52.428;13.302;2023-02-28T08:31:43;6.63;;;3.25;;
35795;SDS011;21916;52.428;13.302;2023-02-28T08:34:09;4.80;;;2.53;;
35795;SDS011;21916;52.428;13.302;2023-02-28T08:36:37;4.45;;;2.50;;
35795;SDS011;21916;52.428;13.302;2023-02-28T08:39:04;6.05;;;2.60;;
35795;SDS011;21916;52.428;13.302;2023-02-28T08:41:32;6.97;;;2.80;;
35795;SDS011;21916;52.428;13.302;2023-02-28T08:43:58;5.40;;;2.53;;
35795;SDS011;21916;52.428;13.302;2023-02-28T08:46:25;6.90;;;2.58;;
35795;SDS011;21916;52.428;13.302;2023-02-28T08:48:53;4.28;;;2.40;;
35795;SDS011;21916;52.428;13.302;2023-02-28T08:51:20;6.60;;;3.25;;
35795;SDS011;21916;52.428;13.302;2023-02-28T08:54:00;6.13;;;3.67;;
35795;SDS011;21916;52.428;13.302;2023-02-28T08:56:27;3.05;;;2.10;;
35795;SDS011;21916;52.428;13.302;2023-02-28T08:58:54;4.60;;;1.48;;
35795;SDS011;21916;52.428;13.302;2023-02-28T09:01:22;3.78;;;2.10;;
35795;SDS011;21916;52.428;13.302;2023-02-28T09:03:52;5.82;;;1.85;;
35795;SDS011;21916;52.428;13.302;2023-02-28T09:06:20;6.63;;;2.28;;
35795;SDS011;21916;52.428;13.302;2023-02-28T09:08:48;5.07;;;2.00;;
35795;SDS011;21916;52.428;13.302;2023-02-28T09:11:14;3.10;;;1.63;;
35795;SDS011;21916;52.428;13.302;2023-02-28T09:13:41;3.97;;;1.92;;
35795;SDS011;21916;52.428;13.302;2023-02-28T09:16:09;5.03;;;1.85;;
35795;SDS011;21916;52.428;13.302;2023-02-28T09:18:37;4.05;;;2.10;;
35795;SDS011;21916;52.428;13.302;2023-02-28T09:21:06;4.45;;;2.40;;
35795;SDS011;21916;52.428;13.302;2023-02-28T09:23:33;5.20;;;2.70;;
35795;SDS011;21916;52.428;13.302;2023-02-28T09:26:01;5.30;;;2.20;;
35795;SDS011;21916;52.428;13.302;2023-02-28T09:28:26;6.22;;;2.13;;
35795;SDS011;21916;52.428;13.302;2023-02-28T09:30:56;9.07;;;1.98;;
35795;SDS011;21916;52.428;13.302;2023-02-28T09:33:24;3.38;;;1.70;;
35795;SDS011;21916;52.428;13.302;2023-02-28T09:35:56;4.25;;;2.15;;
35795;SDS011;21916;52.428;13.302;2023-02-28T09:38:24;4.65;;;1.95;;
35795;SDS011;21916;52.428;13.302;2023-02-28T09:40:51;3.65;;;1.95;;
35795;SDS011;21916;52.428;13.302;2023-02-28T09:43:21;3.28;;;1.33;;
35795;SDS011;21916;52.428;13.302;2023-02-28T09:46:06;2.85;;;1.90;;
35795;SDS011;21916;52.428;13.302;2023-02-28T09:48:41;5.57;;;1.90;;
35795;SDS011;21916;52.428;13.302;2023-02-28T09:51:26;6.85;;;2.25;;
35795;SDS011;21916;52.428;13.302;2023-02-28T09:53:58;4.05;;;1.90;;
35795;SDS011;21916;52.428;13.302;2023-02-28T09:56:26;3.45;;;1.70;;
35795;SDS011;21916;52.428;13.302;2023-02-28T09:58:59;3.15;;;1.42;;
35795;SDS011;21916;52.428;13.302;2023-02-28T10:01:52;4.55;;;2.22;;
35795;SDS011;21916;52.428;13.302;2023-02-28T10:04:26;4.15;;;1.75;;
35795;SDS011;21916;52.428;13.302;2023-02-28T10:06:59;6.32;;;2.08;;
35795;SDS011;21916;52.428;13.302;2023-02-28T10:09:30;5.80;;;2.70;;
35795;SDS011;21916;52.428;13.302;2023-02-28T10:12:03;4.07;;;2.30;;
35795;SDS011;21916;52.428;13.302;2023-02-28T10:14:31;4.60;;;2.25;;
35795;SDS011;21916;52.428;13.302;2023-02-28T10:17:02;3.97;;;1.92;;
35795;SDS011;21916;52.428;13.302;2023-02-28T10:19:44;4.88;;;2.30;;
35795;SDS011;21916;52.428;13.302;2023-02-28T10:22:24;4.97;;;2.13;;
35795;SDS011;21916;52.428;13.302;2023-02-28T10:24:58;4.38;;;1.75;;
35795;SDS011;21916;52.428;13.302;2023-02-28T10:27:31;6.97;;;2.40;;
35795;SDS011;21916;52.428;13.302;2023-02-28T10:29:59;4.32;;;2.22;;
35795;SDS011;21916;52.428;13.302;2023-02-28T10:32:30;4.72;;;2.13;;
35795;SDS011;21916;52.428;13.302;2023-02-28T10:37:40;4.40;;;2.20;;
35795;SDS011;21916;52.428;13.302;2023-02-28T10:42:58;6.78;;;2.45;;
35795;SDS011;21916;52.428;13.302;2023-02-28T10:45:27;4.93;;;2.03;;
35795;SDS011;21916;52.428;13.302;2023-02-28T10:48:05;3.85;;;1.85;;
35795;SDS011;21916;52.428;13.302;2023-02-28T10:50:51;4.50;;;2.10;;
35795;SDS011;21916;52.428;13.302;2023-02-28T10:58:30;5.57;;;2.42;;
35795;SDS011;21916;52.428;13.302;2023-02-28T11:01:12;3.80;;;2.03;;
35795;SDS011;21916;52.428;13.302;2023-02-28T11:03:41;5.93;;;2.17;;
35795;SDS011;21916;52.428;13.302;2023-02-28T11:06:07;7.32;;;1.88;;
35795;SDS011;21916;52.428;13.302;2023-02-28T11:08:49;5.82;;;2.53;;
35795;SDS011;21916;52.428;13.302;2023-02-28T11:11:21;4.22;;;1.90;;
35795;SDS011;21916;52.428;13.302;2023-02-28T11:13:52;4.63;;;2.50;;
35795;SDS011;21916;52.428;13.302;2023-02-28T11:16:19;4.40;;;2.15;;
35795;SDS011;21916;52.428;13.302;2023-02-28T11:18:53;5.85;;;2.00;;
35795;SDS011;21916;52.428;13.302;2023-02-28T11:21:24;5.10;;;2.08;;
35795;SDS011;21916;52.428;13.302;2023-02-28T11:23:56;3.60;;;1.85;;
35795;SDS011;21916;52.428;13.302;2023-02-28T11:26:34;2.65;;;1.80;;
35795;SDS011;21916;52.428;13.302;2023-02-28T11:29:03;2.85;;;2.00;;
35795;SDS011;21916;52.428;13.302;2023-02-28T11:34:36;4.07;;;2.40;;
35795;SDS011;21916;52.428;13.302;2023-02-28T11:37:03;4.57;;;2.33;;
35795;SDS011;21916;52.428;13.302;2023-02-28T11:39:32;6.85;;;2.72;;
35795;SDS011;21916;52.428;13.302;2023-02-28T11:55:01;5.30;;;2.20;;
35795;SDS011;21916;52.428;13.302;2023-02-28T12:08:49;5.75;;;2.20;;
35795;SDS011;21916;52.428;13.302;2023-02-28T12:16:32;5.55;;;2.30;;
35795;SDS011;21916;52.428;13.302;2023-02-28T12:24:32;5.78;;;2.38;;
35795;SDS011;21916;52.428;13.302;2023-02-28T12:27:07;4.50;;;2.70;;
35795;SDS011;21916;52.428;13.302;2023-02-28T12:29:49;4.90;;;2.72;;
35795;SDS011;21916;52.428;13.302;2023-02-28T12:32:22;3.20;;;2.38;;
35795;SDS011;21916;52.428;13.302;2023-02-28T12:35:12;8.05;;;2.63;;
35795;SDS011;21916;52.428;13.302;2023-02-28T12:40:13;3.33;;;2.20;;
35795;SDS011;21916;52.428;13.302;2023-02-28T12:42:48;5.05;;;3.10;;
35795;SDS011;21916;52.428;13.302;2023-02-28T12:48:37;2.80;;;2.20;;
35795;SDS011;21916;52.428;13.302;2023-02-28T12:51:11;3.95;;;2.38;;
35795;SDS011;21916;52.428;13.302;2023-02-28T13:04:59;4.22;;;2.78;;
35795;SDS011;21916;52.428;13.302;2023-02-28T13:13:11;4.47;;;2.80;;
35795;SDS011;21916;52.428;13.302;2023-02-28T13:15:41;5.45;;;3.13;;
35795;SDS011;21916;52.428;13.302;2023-02-28T13:18:34;3.90;;;2.70;;
35795;SDS011;21916;52.428;13.302;2023-02-28T13:21:08;4.68;;;2.80;;
35795;SDS011;21916;52.428;13.302;2023-02-28T13:29:00;4.18;;;2.63;;
35795;SDS011;21916;52.428;13.302;2023-02-28T13:31:29;4.75;;;2.20;;
35795;SDS011;21916;52.428;13.302;2023-02-28T13:36:31;4.70;;;3.20;;
35795;SDS011;21916;52.428;13.302;2023-02-28T13:38:58;6.43;;;2.55;;
35795;SDS011;21916;52.428;13.302;2023-02-28T13:41:45;7.60;;;2.60;;
35795;SDS011;21916;52.428;13.302;2023-02-28T13:57:31;4.40;;;2.53;;
35795;SDS011;21916;52.428;13.302;2023-02-28T14:05:44;4.93;;;2.65;;
35795;SDS011;21916;52.428;13.302;2023-02-28T14:10:46;7.05;;;3.13;;
35795;SDS011;21916;52.428;13.302;2023-02-28T14:13:38;5.20;;;3.08;;
35795;SDS011;21916;52.428;13.302;2023-02-28T14:16:54;5.35;;;2.67;;
35795;SDS011;21916;52.428;13.302;2023-02-28T14:19:02;6.78;;;2.75;;
35795;SDS011;21916;52.428;13.302;2023-02-28T14:21:35;5.20;;;2.97;;
35795;SDS011;21916;52.428;13.302;2023-02-28T14:24:09;5.13;;;2.47;;
35795;SDS011;21916;52.428;13.302;2023-02-28T14:29:43;4.57;;;3.22;;
35795;SDS011;21916;52.428;13.302;2023-02-28T14:32:41;4.50;;;3.03;;
35795;SDS011;21916;52.428;13.302;2023-02-28T14:35:27;5.70;;;2.67;;
35795;SDS011;21916;52.428;13.302;2023-02-28T14:38:03;4.82;;;2.90;;
35795;SDS011;21916;52.428;13.302;2023-02-28T14:40:33;3.53;;;2.83;;
35795;SDS011;21916;52.428;13.302;2023-02-28T14:43:02;4.10;;;2.33;;
35795;SDS011;21916;52.428;13.302;2023-02-28T14:45:33;3.75;;;2.78;;
35795;SDS011;21916;52.428;13.302;2023-02-28T14:48:03;4.05;;;2.42;;
35795;SDS011;21916;52.428;13.302;2023-02-28T14:50:34;4.13;;;2.63;;
35795;SDS011;21916;52.428;13.302;2023-02-28T14:53:02;4.32;;;2.80;;
35795;SDS011;21916;52.428;13.302;2023-02-28T14:55:34;3.70;;;2.55;;
35795;SDS011;21916;52.428;13.302;2023-02-28T14:58:02;4.55;;;2.92;;
35795;SDS011;21916;52.428;13.302;2023-02-28T15:00:47;5.68;;;2.72;;
35795;SDS011;21916;52.428;13.302;2023-02-28T15:03:23;6.45;;;3.45;;
35795;SDS011;21916;52.428;13.302;2023-02-28T15:05:58;4.13;;;2.60;;
35795;SDS011;21916;52.428;13.302;2023-02-28T15:08:30;6.72;;;2.70;;
35795;SDS011;21916;52.428;13.302;2023-02-28T15:11:08;3.10;;;2.58;;
35795;SDS011;21916;52.428;13.302;2023-02-28T15:13:42;6.90;;;3.22;;
35795;SDS011;21916;52.428;13.302;2023-02-28T15:21:18;5.88;;;2.95;;
35795;SDS011;21916;52.428;13.302;2023-02-28T15:23:51;8.68;;;2.72;;
35795;SDS011;21916;52.428;13.302;2023-02-28T15:26:19;6.60;;;3.20;;
35795;SDS011;21916;52.428;13.302;2023-02-28T15:28:51;5.30;;;2.90;;
35795;SDS011;21916;52.428;13.302;2023-02-28T15:31:23;4.70;;;3.00;;
35795;SDS011;21916;52.428;13.302;2023-02-28T15:33:54;6.00;;;2.95;;
35795;SDS011;21916;52.428;13.302;2023-02-28T15:36:24;6.72;;;3.60;;
35795;SDS011;21916;52.428;13.302;2023-02-28T15:38:54;5.10;;;3.47;;
35795;SDS011;21916;52.428;13.302;2023-02-28T15:41:27;3.97;;;3.15;;
35795;SDS011;21916;52.428;13.302;2023-02-28T15:46:54;3.83;;;2.95;;
35795;SDS011;21916;52.428;13.302;2023-02-28T15:49:22;6.68;;;3.35;;
35795;SDS011;21916;52.428;13.302;2023-02-28T15:51:50;9.73;;;3.28;;
35795;SDS011;21916;52.428;13.302;2023-02-28T15:54:19;4.68;;;3.55;;
35795;SDS011;21916;52.428;13.302;2023-02-28T15:56:58;6.88;;;3.65;;
35795;SDS011;21916;52.428;13.302;2023-02-28T15:59:29;6.45;;;3.55;;
35795;SDS011;21916;52.428;13.302;2023-02-28T16:07:31;9.10;;;3.97;;
35795;SDS011;21916;52.428;13.302;2023-02-28T16:09:58;7.97;;;3.80;;
35795;SDS011;21916;52.428;13.302;2023-02-28T16:12:25;6.68;;;3.75;;
35795;SDS011;21916;52.428;13.302;2023-02-28T16:14:53;6.72;;;3.25;;
35795;SDS011;21916;52.428;13.302;2023-02-28T16:17:25;7.68;;;3.92;;
35795;SDS011;21916;52.428;13.302;2023-02-28T16:19:54;4.43;;;3.10;;
35795;SDS011;21916;52.428;13.302;2023-02-28T16:22:21;6.43;;;3.60;;
35795;SDS011;21916;52.428;13.302;2023-02-28T16:24:47;8.38;;;3.50;;
35795;SDS011;21916;52.428;13.302;2023-02-28T16:27:17;8.00;;;3.53;;
35795;SDS011;21916;52.428;13.302;2023-02-28T16:29:46;8.50;;;3.83;;
35795;SDS011;21916;52.428;13.302;2023-02-28T16:32:14;7.28;;;3.38;;
35795;SDS011;21916;52.428;13.302;2023-02-28T16:34:40;6.47;;;3.70;;
35795;SDS011;21916;52.428;13.302;2023-02-28T16:37:15;5.88;;;3.40;;
35795;SDS011;21916;52.428;13.302;2023-02-28T16:39:43;8.57;;;3.65;;
35795;SDS011;21916;52.428;13.302;2023-02-28T16:42:20;9.73;;;3.85;;
35795;SDS011;21916;52.428;13.302;2023-02-28T16:44:53;7.60;;;3.88;;
35795;SDS011;21916;52.428;13.302;2023-02-28T16:47:20;8.32;;;4.32;;
35795;SDS011;21916;52.428;13.302;2023-02-28T16:49:47;8.05;;;3.40;;
35795;SDS011;21916;52.428;13.302;2023-02-28T16:52:13;15.35;;;4.97;;
35795;SDS011;21916;52.428;13.302;2023-02-28T16:54:39;6.55;;;3.90;;
35795;SDS011;21916;52.428;13.302;2023-02-28T16:57:06;6.20;;;3.22;;
35795;SDS011;21916;52.428;13.302;2023-02-28T16:59:46;8.77;;;3.33;;
35795;SDS011;21916;52.428;13.302;2023-02-28T17:02:14;9.30;;;3.70;;
35795;SDS011;21916;52.428;13.302;2023-02-28T17:04:41;11.38;;;4.20;;
35795;SDS011;21916;52.428;13.302;2023-02-28T17:07:11;8.68;;;3.25;;
35795;SDS011;21916;52.428;13.302;2023-02-28T17:09:39;6.90;;;4.18;;
35795;SDS011;21916;52.428;13.302;2023-02-28T17:12:06;6.05;;;3.80;;
35795;SDS011;21916;52.428;13.302;2023-02-28T17:14:35;9.63;;;3.85;;
35795;SDS011;21916;52.428;13.302;2023-02-28T17:17:00;8.52;;;3.78;;
35795;SDS011;21916;52.428;13.302;2023-02-28T17:19:26;8.60;;;4.00;;
35795;SDS011;21916;52.428;13.302;2023-02-28T17:21:53;9.50;;;3.90;;